Terminal Aerodrome Forecast
Issued by NWS

Home | Current Version | Previous Version | Text Only | Print | Product List | Glossary On
Versions: 1 2 3 4 5 6 7 8 9 10 11 12 13 14 15 16 17
000
FTUS41 KGYX 010524
TAFPSM
TAF
KPSM 010524Z 0106/0206 24003KT P6SM SCT200
     FM011500 22005KT P6SM SCT060 OVC100
     FM012200 18005KT 3SM -SN BKN025 OVC050
     FM020100 20006KT 1 1/2SM -SN BR BKN015 OVC025=

USA.gov is the U.S. government's official web portal to all federal, state and local government web resources and services.